createdAt,value
2023-02-09T00:02:00.942Z,68.68
2023-02-09T00:05:08.333Z,68.58
2023-02-09T00:08:14.517Z,68.42
2023-02-09T00:11:20.127Z,68.50
2023-02-09T00:14:26.666Z,68.67
2023-02-09T00:17:33.436Z,68.71
2023-02-09T00:20:39.690Z,68.69
2023-02-09T00:23:46.200Z,68.82
2023-02-09T00:26:52.633Z,68.68
2023-02-09T00:29:58.945Z,68.52
2023-02-09T00:33:05.274Z,68.48
2023-02-09T00:36:14.511Z,68.47
2023-02-09T00:39:20.716Z,68.50
2023-02-09T00:42:26.926Z,68.74
2023-02-09T00:45:33.572Z,68.76
2023-02-09T00:48:39.917Z,68.57
2023-02-09T00:51:46.632Z,68.49
2023-02-09T00:54:52.973Z,68.49
2023-02-09T00:57:59.149Z,68.45
2023-02-09T01:01:05.480Z,68.40
2023-02-09T01:04:11.712Z,68.54
2023-02-09T01:07:17.945Z,68.63
2023-02-09T01:10:24.554Z,68.61
2023-02-09T01:13:31.150Z,68.74
2023-02-09T01:16:37.406Z,68.74
2023-02-09T01:19:43.627Z,68.58
2023-02-09T01:22:50.052Z,68.63
2023-02-09T01:26:04.647Z,68.56
2023-02-09T01:29:13.040Z,68.37
2023-02-09T01:32:19.176Z,68.34
2023-02-09T01:35:23.719Z,68.34
2023-02-09T01:38:30.591Z,68.37
2023-02-09T01:41:37.043Z,68.50
2023-02-09T01:45:17.911Z,68.56
2023-02-09T01:48:27.424Z,68.71
2023-02-09T01:51:37.906Z,68.82
2023-02-09T01:54:47.715Z,68.70
2023-02-09T01:57:56.744Z,68.64
2023-02-09T02:01:03.205Z,68.79
2023-02-09T02:04:09.839Z,69.02
2023-02-09T02:07:21.843Z,69.04
2023-02-09T02:10:28.317Z,68.87
2023-02-09T02:13:34.562Z,68.81
2023-02-09T02:16:55.177Z,68.90
2023-02-09T02:20:33.298Z,68.98
2023-02-09T02:23:48.692Z,69.00
2023-02-09T02:26:59.679Z,69.10
2023-02-09T02:30:35.270Z,69.22
2023-02-09T02:33:50.974Z,69.04
2023-02-09T02:37:05.253Z,68.94
2023-02-09T02:40:21.841Z,68.94
2023-02-09T02:43:41.705Z,69.17
2023-02-09T02:46:52.080Z,69.15
2023-02-09T02:50:04.953Z,69.13
2023-02-09T02:53:14.936Z,68.96
2023-02-09T02:56:25.823Z,69.06
2023-02-09T02:59:35.207Z,68.92
2023-02-09T03:02:44.831Z,68.78
2023-02-09T03:05:51.917Z,68.95
2023-02-09T03:08:59.569Z,69.14
2023-02-09T03:12:14.157Z,69.06
2023-02-09T03:15:31.710Z,69.00
2023-02-09T03:18:45.355Z,69.12
2023-02-09T03:21:57.114Z,69.06
2023-02-09T03:25:07.693Z,69.01
2023-02-09T03:28:19.569Z,68.92
2023-02-09T03:31:26.710Z,68.93
2023-02-09T03:34:32.940Z,69.01
2023-02-09T03:37:39.644Z,68.91
2023-02-09T03:40:46.559Z,68.87
2023-02-09T03:44:10.607Z,68.91
2023-02-09T03:47:16.771Z,68.90
2023-02-09T03:50:23.072Z,69.02
2023-02-09T03:53:29.406Z,68.83
2023-02-09T03:56:37.647Z,68.95
2023-02-09T03:59:43.942Z,69.10
2023-02-09T04:02:50.191Z,69.20
2023-02-09T04:05:56.690Z,69.18
2023-02-09T04:09:03.994Z,69.06
2023-02-09T04:12:10.570Z,69.00
2023-02-09T04:15:16.890Z,69.03
2023-02-09T04:18:23.541Z,69.16
2023-02-09T04:21:29.810Z,69.14
2023-02-09T04:24:36.281Z,69.08
2023-02-09T04:27:42.468Z,69.15
2023-02-09T04:30:52.414Z,69.30
2023-02-09T04:33:58.660Z,69.16
2023-02-09T04:37:04.928Z,69.18
2023-02-09T04:40:12.900Z,69.31
2023-02-09T04:43:19.992Z,69.38
2023-02-09T04:46:26.272Z,69.35
2023-02-09T04:49:32.629Z,69.49
2023-02-09T04:52:38.805Z,69.41
2023-02-09T04:55:46.716Z,69.38
2023-02-09T04:59:10.448Z,69.40
2023-02-09T05:02:16.604Z,69.46
2023-02-09T05:05:22.989Z,69.32
2023-02-09T05:08:30.106Z,69.26
2023-02-09T05:11:36.321Z,69.16
2023-02-09T05:14:42.590Z,69.21
2023-02-09T05:17:48.926Z,69.43
2023-02-09T05:20:55.473Z,69.33
2023-02-09T05:24:01.758Z,69.23
2023-02-09T05:27:08.010Z,69.32
2023-02-09T05:30:15.573Z,69.47
2023-02-09T05:33:22.006Z,69.47
2023-02-09T05:36:28.334Z,69.55
2023-02-09T05:39:34.710Z,69.42
2023-02-09T05:42:41.186Z,69.57
2023-02-09T05:45:48.439Z,69.58
2023-02-09T05:48:54.726Z,69.58
2023-02-09T05:52:01.025Z,69.56
2023-02-09T05:55:07.988Z,69.37
2023-02-09T05:58:14.618Z,69.36
2023-02-09T06:01:20.943Z,69.27
2023-02-09T06:04:27.853Z,69.31
2023-02-09T06:07:34.033Z,69.29
2023-02-09T06:10:40.075Z,69.28
2023-02-09T06:13:44.541Z,69.59
2023-02-09T06:16:50.774Z,69.69
2023-02-09T06:19:56.981Z,69.57
2023-02-09T06:23:03.273Z,69.72
2023-02-09T06:26:11.989Z,69.75
2023-02-09T06:29:18.203Z,69.72
2023-02-09T06:32:24.376Z,69.71
2023-02-09T06:35:30.638Z,69.65
2023-02-09T06:38:38.129Z,69.84
2023-02-09T06:41:44.331Z,69.93
2023-02-09T06:44:50.552Z,70.06
2023-02-09T06:47:56.754Z,70.12
2023-02-09T06:51:03.110Z,70.10
2023-02-09T06:54:09.819Z,69.93
2023-02-09T06:57:16.078Z,69.90
2023-02-09T07:00:23.891Z,70.14
2023-02-09T07:03:30.870Z,70.19
2023-02-09T07:06:37.144Z,70.20
2023-02-09T07:09:43.366Z,70.24
2023-02-09T07:12:49.708Z,70.34
2023-02-09T07:16:00.936Z,70.37
2023-02-09T07:19:07.216Z,70.20
2023-02-09T07:22:13.543Z,70.15
2023-02-09T07:25:19.957Z,70.37
2023-02-09T07:28:26.432Z,70.42
2023-02-09T07:31:32.701Z,70.39
2023-02-09T07:34:38.996Z,70.43
2023-02-09T07:37:45.441Z,70.49
2023-02-09T07:40:51.921Z,70.57
2023-02-09T07:43:58.457Z,70.71
2023-02-09T07:47:04.828Z,70.91
2023-02-09T07:50:12.014Z,70.92
2023-02-09T07:53:18.502Z,71.04
2023-02-09T07:56:25.050Z,71.26
2023-02-09T07:59:31.294Z,71.55
2023-02-09T08:02:38.987Z,71.47
2023-02-09T08:05:52.641Z,71.63
2023-02-09T08:09:01.077Z,71.80
2023-02-09T08:12:09.710Z,71.79
2023-02-09T08:15:18.030Z,71.93
2023-02-09T08:18:26.440Z,72.06
2023-02-09T08:21:35.527Z,72.12
2023-02-09T08:24:42.400Z,72.17
2023-02-09T08:27:49.494Z,72.39
2023-02-09T08:30:55.836Z,72.33
2023-02-09T08:34:02.087Z,72.45
2023-02-09T08:37:08.207Z,72.57
2023-02-09T08:40:14.964Z,72.60
2023-02-09T08:43:21.383Z,72.73
2023-02-09T08:46:27.930Z,72.97
2023-02-09T08:49:34.305Z,72.96
2023-02-09T08:52:38.858Z,73.04
2023-02-09T08:55:45.317Z,73.17
2023-02-09T08:58:51.959Z,73.19
2023-02-09T09:01:58.213Z,73.38
2023-02-09T09:05:02.670Z,73.40
2023-02-09T09:08:09.688Z,73.43
2023-02-09T09:11:16.066Z,73.54
2023-02-09T09:14:22.292Z,73.63
2023-02-09T09:17:27.137Z,73.75
2023-02-09T09:20:33.216Z,73.85
2023-02-09T09:23:39.674Z,73.83
2023-02-09T09:26:46.524Z,73.97
2023-02-09T09:29:52.843Z,74.04
2023-02-09T09:32:59.068Z,74.01
2023-02-09T09:36:03.940Z,73.94
2023-02-09T09:39:10.133Z,74.01
2023-02-09T09:42:22.217Z,74.11
2023-02-09T09:45:31.699Z,74.01
2023-02-09T09:48:44.625Z,74.03
2023-02-09T09:51:54.844Z,74.19
2023-02-09T09:55:02.540Z,74.22
2023-02-09T09:58:17.173Z,74.26
2023-02-09T10:01:23.508Z,74.30
2023-02-09T10:04:31.558Z,74.35
2023-02-09T10:07:39.129Z,74.18
2023-02-09T10:10:50.973Z,74.12
2023-02-09T10:13:58.640Z,74.20
2023-02-09T10:17:05.274Z,74.12
2023-02-09T10:20:13.437Z,73.95
2023-02-09T10:23:23.921Z,73.95
2023-02-09T10:26:32.326Z,73.77
2023-02-09T10:29:38.868Z,73.67
2023-02-09T10:32:46.471Z,73.70
2023-02-09T10:35:55.077Z,73.63
2023-02-09T10:39:19.904Z,73.54
2023-02-09T10:42:30.346Z,73.52
2023-02-09T10:45:42.024Z,73.37
2023-02-09T10:48:49.001Z,73.58
2023-02-09T10:52:07.177Z,73.42
2023-02-09T10:55:21.312Z,73.07
2023-02-09T10:58:31.392Z,73.16
2023-02-09T11:01:43.448Z,73.10
2023-02-09T11:04:50.083Z,72.84
2023-02-09T11:08:00.368Z,72.89
2023-02-09T11:11:10.452Z,72.68
2023-02-09T11:14:18.545Z,72.57
2023-02-09T11:17:36.531Z,72.58
2023-02-09T11:20:46.330Z,72.47
2023-02-09T11:24:03.234Z,72.34
2023-02-09T11:27:23.609Z,72.39
2023-02-09T11:30:45.909Z,72.20
2023-02-09T11:34:02.017Z,72.01
2023-02-09T11:37:21.356Z,71.78
2023-02-09T11:40:33.297Z,71.62
2023-02-09T11:43:42.495Z,71.58
2023-02-09T11:46:50.683Z,71.66
2023-02-09T11:49:59.322Z,71.52
2023-02-09T11:53:13.023Z,71.57
2023-02-09T11:56:21.209Z,71.49
2023-02-09T11:59:34.156Z,71.32
2023-02-09T12:02:52.188Z,71.19
2023-02-09T12:05:58.647Z,70.93
2023-02-09T12:09:09.864Z,70.90
2023-02-09T12:12:27.163Z,70.80
2023-02-09T12:15:43.001Z,70.78
2023-02-09T12:18:49.690Z,70.56
2023-02-09T12:21:55.976Z,70.43
2023-02-09T12:25:19.754Z,70.31
2023-02-09T12:28:46.991Z,69.78
2023-02-09T12:32:35.978Z,69.71
2023-02-09T12:35:43.576Z,69.84
2023-02-09T12:39:05.098Z,69.78
2023-02-09T12:42:31.328Z,69.40
2023-02-09T12:45:39.778Z,69.20
2023-02-09T12:49:04.522Z,69.08
2023-02-09T12:52:20.349Z,68.73
2023-02-09T12:55:27.375Z,68.74
2023-02-09T12:59:10.482Z,68.56
2023-02-09T13:02:28.178Z,68.32
2023-02-09T13:05:38.966Z,67.92
2023-02-09T13:08:53.555Z,67.90
2023-02-09T13:12:07.638Z,67.44
2023-02-09T13:15:19.331Z,67.41
2023-02-09T13:18:35.160Z,67.24
2023-02-09T13:21:48.538Z,67.16
2023-02-09T13:24:59.826Z,66.80
2023-02-09T13:28:16.395Z,66.76
2023-02-09T13:31:39.774Z,66.60
2023-02-09T13:34:55.458Z,66.25
2023-02-09T13:38:08.460Z,66.15
2023-02-09T13:41:28.492Z,65.87
2023-02-09T13:44:36.957Z,65.78
2023-02-09T13:47:49.395Z,65.51
2023-02-09T13:50:57.433Z,65.50
2023-02-09T13:54:05.101Z,65.41
2023-02-09T13:57:23.779Z,65.07
2023-02-09T14:00:37.486Z,64.86
2023-02-09T14:03:57.805Z,64.91
2023-02-09T14:07:08.499Z,64.95
2023-02-09T14:10:18.209Z,64.82
2023-02-09T14:13:28.836Z,64.57
2023-02-09T14:16:44.724Z,64.39
2023-02-09T14:20:00.390Z,64.34
2023-02-09T14:23:17.517Z,64.33
2023-02-09T14:26:27.714Z,64.18
2023-02-09T14:29:36.141Z,64.17
2023-02-09T14:32:45.569Z,64.03
2023-02-09T14:35:59.348Z,63.97
2023-02-09T14:39:14.036Z,63.69
2023-02-09T14:42:20.793Z,63.63
2023-02-09T14:45:39.420Z,63.73
2023-02-09T14:48:45.853Z,63.47
2023-02-09T14:51:51.209Z,63.42
2023-02-09T14:55:00.026Z,63.29
2023-02-09T14:58:13.944Z,63.34
2023-02-09T15:01:20.272Z,63.12
2023-02-09T15:04:24.817Z,63.08
2023-02-09T15:07:37.588Z,62.97
2023-02-09T15:10:48.526Z,62.95
2023-02-09T15:13:58.497Z,62.99
2023-02-09T15:17:11.106Z,62.98
2023-02-09T15:20:21.447Z,62.95
2023-02-09T15:23:27.934Z,62.91
2023-02-09T15:26:37.272Z,62.84
2023-02-09T15:29:43.418Z,62.78
2023-02-09T15:32:49.961Z,62.76
2023-02-09T15:35:59.551Z,62.72
2023-02-09T15:39:08.255Z,62.66
2023-02-09T15:42:35.502Z,62.70
2023-02-09T15:46:10.552Z,62.64
2023-02-09T15:49:16.822Z,62.52
2023-02-09T15:52:21.674Z,62.84
2023-02-09T15:55:29.096Z,63.09
2023-02-09T15:58:37.340Z,63.11
2023-02-09T16:01:43.768Z,62.97
2023-02-09T16:04:50.232Z,62.96
2023-02-09T16:07:55.123Z,62.94
2023-02-09T16:11:02.158Z,62.81
2023-02-09T16:14:17.772Z,62.86
2023-02-09T16:17:24.108Z,62.92
2023-02-09T16:20:29.115Z,63.04
2023-02-09T16:23:37.428Z,63.06
2023-02-09T16:26:43.633Z,63.06
2023-02-09T16:29:49.910Z,63.05
2023-02-09T16:32:57.080Z,62.96
2023-02-09T16:36:05.289Z,62.84
2023-02-09T16:39:18.926Z,62.90
2023-02-09T16:42:26.535Z,63.00
2023-02-09T16:45:38.809Z,63.11
2023-02-09T16:48:47.917Z,63.32
2023-02-09T16:51:56.314Z,63.40
2023-02-09T16:55:07.717Z,63.38
2023-02-09T16:58:16.706Z,63.21
2023-02-09T17:01:24.216Z,63.25
2023-02-09T17:04:30.678Z,63.13
2023-02-09T17:07:48.814Z,63.17
2023-02-09T17:11:00.554Z,63.26
2023-02-09T17:14:06.876Z,63.28
2023-02-09T17:17:18.988Z,63.36
2023-02-09T17:20:30.440Z,63.45
2023-02-09T17:23:37.043Z,63.46
2023-02-09T17:26:43.557Z,63.44
2023-02-09T17:29:49.874Z,63.51
2023-02-09T17:32:59.879Z,63.65
2023-02-09T17:39:33.106Z,63.80
2023-02-09T17:42:38.383Z,63.78
2023-02-09T17:45:49.094Z,63.70
2023-02-09T17:48:55.587Z,63.95
2023-02-09T17:52:01.846Z,64.01
2023-02-09T17:55:06.789Z,63.95
2023-02-09T17:58:13.577Z,64.20
2023-02-09T18:01:27.441Z,64.16
2023-02-09T18:04:33.891Z,64.08
2023-02-09T18:07:40.262Z,64.18
2023-02-09T18:10:44.769Z,64.29
2023-02-09T18:13:51.100Z,64.29
2023-02-09T18:16:56.283Z,64.24
2023-02-09T18:20:02.584Z,64.29
2023-02-09T18:23:07.357Z,64.33
2023-02-09T18:26:13.706Z,64.42
2023-02-09T18:29:18.261Z,64.43
2023-02-09T18:32:24.669Z,64.41
2023-02-09T18:35:34.346Z,64.50
2023-02-09T18:38:41.064Z,64.45
2023-02-09T18:41:54.429Z,64.60
2023-02-09T18:45:01.240Z,64.54
2023-02-09T18:48:06.027Z,64.57
2023-02-09T18:51:12.635Z,64.76
2023-02-09T18:54:19.048Z,64.79
2023-02-09T18:57:25.273Z,64.76
2023-02-09T19:00:32.697Z,64.89
2023-02-09T19:03:38.945Z,64.84
2023-02-09T19:06:43.609Z,64.86
2023-02-09T19:09:49.897Z,64.78
2023-02-09T19:12:55.527Z,64.86
2023-02-09T19:16:01.957Z,64.76
2023-02-09T19:19:09.617Z,64.88
2023-02-09T19:22:19.816Z,64.74
2023-02-09T19:25:29.018Z,64.79
2023-02-09T19:28:36.265Z,64.92
2023-02-09T19:31:42.863Z,64.75
2023-02-09T19:34:50.000Z,64.73
2023-02-09T19:37:57.651Z,64.69
2023-02-09T19:41:12.055Z,64.72
2023-02-09T19:44:18.534Z,64.70
2023-02-09T19:47:27.488Z,64.68
2023-02-09T19:50:33.910Z,64.69
2023-02-09T19:53:40.169Z,64.84
2023-02-09T19:56:45.326Z,64.86
2023-02-09T19:59:51.664Z,64.84
2023-02-09T20:02:56.284Z,64.83
2023-02-09T20:06:05.750Z,64.78
2023-02-09T20:09:12.470Z,64.90
2023-02-09T20:12:19.279Z,65.05
2023-02-09T20:15:25.727Z,64.94
2023-02-09T20:18:32.171Z,64.99
2023-02-09T20:21:36.992Z,64.87
2023-02-09T20:24:44.377Z,64.89
2023-02-09T20:27:51.825Z,64.96
2023-02-09T20:30:58.176Z,65.03
2023-02-09T20:34:05.165Z,65.00
2023-02-09T20:37:12.167Z,65.13
2023-02-09T20:40:18.590Z,65.26
2023-02-09T20:43:42.602Z,65.30
2023-02-09T20:46:58.087Z,65.17
2023-02-09T20:50:05.166Z,65.32
2023-02-09T20:53:11.542Z,65.30
2023-02-09T20:56:17.758Z,65.13
2023-02-09T20:59:25.504Z,65.46
2023-02-09T21:02:31.811Z,65.69
2023-02-09T21:05:38.655Z,65.69
2023-02-09T21:08:44.911Z,65.86
2023-02-09T21:11:49.408Z,65.75
2023-02-09T21:14:56.739Z,65.76
2023-02-09T21:18:03.116Z,65.75
2023-02-09T21:21:08.093Z,65.60
2023-02-09T21:24:14.434Z,65.63
2023-02-09T21:27:19.394Z,65.73
2023-02-09T21:30:26.068Z,65.74
2023-02-09T21:33:32.283Z,65.65
2023-02-09T21:36:38.103Z,65.59
2023-02-09T21:39:42.768Z,65.63
2023-02-09T21:42:49.994Z,65.61
2023-02-09T21:45:56.292Z,65.55
2023-02-09T21:49:02.934Z,65.52
2023-02-09T21:52:09.670Z,65.61
2023-02-09T21:55:17.099Z,65.68
2023-02-09T21:58:23.355Z,65.49
2023-02-09T22:01:27.906Z,65.45
2023-02-09T22:04:34.355Z,65.49
2023-02-09T22:07:40.776Z,65.50
2023-02-09T22:10:48.901Z,65.50
2023-02-09T22:13:56.357Z,65.49
2023-02-09T22:17:02.920Z,65.49
2023-02-09T22:20:11.107Z,65.47
2023-02-09T22:23:18.669Z,65.39
2023-02-09T22:26:24.861Z,65.39
2023-02-09T22:29:33.374Z,65.43
2023-02-09T22:32:39.854Z,65.43
2023-02-09T22:35:46.409Z,65.46
2023-02-09T22:38:52.825Z,65.44
2023-02-09T22:41:59.331Z,65.38
2023-02-09T22:45:06.145Z,65.42
2023-02-09T22:48:13.614Z,65.27
2023-02-09T22:51:20.809Z,65.27
2023-02-09T22:54:27.038Z,65.32
2023-02-09T22:57:31.630Z,65.38
2023-02-09T23:00:37.821Z,65.27
2023-02-09T23:03:44.169Z,65.33
2023-02-09T23:06:50.466Z,65.34
2023-02-09T23:09:55.367Z,65.21
2023-02-09T23:13:01.595Z,65.20
2023-02-09T23:16:16.012Z,65.22
2023-02-09T23:19:22.930Z,65.20
2023-02-09T23:22:29.240Z,65.03
2023-02-09T23:25:33.839Z,64.98
2023-02-09T23:28:40.205Z,64.92
2023-02-09T23:31:45.160Z,64.96
2023-02-09T23:34:51.384Z,65.05
2023-02-09T23:37:57.840Z,65.00
2023-02-09T23:41:08.957Z,64.93
2023-02-09T23:44:15.297Z,65.04
2023-02-09T23:47:21.541Z,64.97
2023-02-09T23:50:27.720Z,65.06
2023-02-09T23:53:35.262Z,64.98
2023-02-09T23:56:42.067Z,65.00
2023-02-09T23:59:48.500Z,64.98
